Time;durP1;ratioP1;P1;durP2;ratioP2;P2;SDS_P1;SDS_P2;PMS_P1;PMS_P2;Temp;Humidity;BMP_temperature;BMP_pressure;BME280_temperature;BME280_humidity;BME280_pressure;Samples;Min_cycle;Max_cycle;Signal;HPM_P1;HPM_P2
2023/08/26 00:01:00;;;;;;;0.60;0.60;;;;;;;9.22;100.00;99311.44;5051719;28;20053;-86
2023/08/26 00:03:28;;;;;;;0.60;0.60;;;;;;;9.15;100.00;99297.22;5051817;28;20048;-86
2023/08/26 00:05:55;;;;;;;0.60;0.60;;;;;;;9.05;100.00;99293.19;5051868;28;20060;-86
2023/08/26 00:08:22;;;;;;;0.60;0.60;;;;;;;9.09;100.00;99305.16;5033758;28;20054;-86
2023/08/26 00:10:51;;;;;;;0.60;0.60;;;;;;;9.04;100.00;99310.41;5051516;28;20059;-86
2023/08/26 00:13:18;;;;;;;0.60;0.60;;;;;;;8.89;100.00;99283.06;5033746;28;20056;-86
2023/08/26 00:15:45;;;;;;;0.60;0.60;;;;;;;9.06;100.00;99307.47;5033962;28;20114;-86
2023/08/26 00:18:13;;;;;;;0.60;0.60;;;;;;;8.98;100.00;99297.03;5033757;28;20060;-86
2023/08/26 00:20:40;;;;;;;0.50;0.50;;;;;;;8.90;100.00;99298.97;5034049;28;20045;-86
2023/08/26 00:23:08;;;;;;;0.60;0.60;;;;;;;8.77;100.00;99285.69;5051116;28;20053;-87
2023/08/26 00:25:35;;;;;;;0.60;0.60;;;;;;;8.91;100.00;99313.25;5033051;28;20045;-86
2023/08/26 00:28:03;;;;;;;0.60;0.60;;;;;;;8.81;100.00;99294.97;5051284;28;20132;-85
2023/08/26 00:30:31;;;;;;;0.60;0.60;;;;;;;8.82;100.00;99298.47;5033308;28;20431;-87
2023/08/26 00:32:59;;;;;;;0.60;0.60;;;;;;;8.76;100.00;99297.50;5033257;28;20080;-86
2023/08/26 00:35:26;;;;;;;0.60;0.60;;;;;;;8.71;100.00;99293.81;5033210;28;20068;-85
2023/08/26 00:37:55;;;;;;;0.60;0.60;;;;;;;8.78;100.00;99286.50;5033259;28;20056;-85
2023/08/26 00:40:23;;;;;;;0.60;0.60;;;;;;;8.83;100.00;99292.84;5033436;28;20857;-87
2023/08/26 00:42:53;;;;;;;0.60;0.60;;;;;;;8.77;100.00;99301.03;5050923;28;20457;-86
2023/08/26 00:45:20;;;;;;;0.60;0.60;;;;;;;8.83;100.00;99297.41;5050748;28;20469;-86
2023/08/26 00:47:48;;;;;;;0.60;0.60;;;;;;;8.66;100.00;99283.78;5032976;28;20049;-87
2023/08/26 00:50:15;;;;;;;0.60;0.60;;;;;;;8.63;100.00;99279.66;5050577;28;20446;-86
2023/08/26 00:52:42;;;;;;;0.60;0.60;;;;;;;8.66;100.00;99287.28;5033324;28;20037;-87
2023/08/26 00:55:10;;;;;;;0.60;0.60;;;;;;;8.60;100.00;99285.47;5016098;28;20049;-87
2023/08/26 00:57:39;;;;;;;0.60;0.60;;;;;;;8.62;100.00;99286.06;5033520;28;20051;-86
2023/08/26 01:00:06;;;;;;;0.60;0.60;;;;;;;8.76;100.00;99302.03;5016764;28;20049;-86
2023/08/26 01:02:34;;;;;;;0.60;0.60;;;;;;;8.62;100.00;99296.84;5050738;28;20508;-87
2023/08/26 01:05:05;;;;;;;0.60;0.60;;;;;;;8.64;100.00;99293.94;5032702;28;20041;-85
2023/08/26 01:07:32;;;;;;;0.60;0.60;;;;;;;8.70;100.00;99294.88;5050443;28;20463;-86
2023/08/26 01:10:00;;;;;;;0.60;0.60;;;;;;;8.58;100.00;99290.28;5016320;28;20080;-86
2023/08/26 01:13:05;;;;;;;0.60;0.60;;;;;;;8.60;100.00;99285.47;5016154;28;20462;-87
2023/08/26 01:15:35;;;;;;;0.60;0.60;;;;;;;8.64;100.00;99289.34;4969450;28;20047;-87
2023/08/26 01:18:06;;;;;;;0.60;0.60;;;;;;;8.59;100.00;99294.59;4953480;28;20046;-86
2023/08/26 01:20:34;;;;;;;0.50;0.50;;;;;;;8.68;100.00;99301.31;4938110;28;20477;-85
2023/08/26 01:23:05;;;;;;;0.60;0.60;;;;;;;8.58;100.00;99295.66;4969521;28;20526;-86
2023/08/26 01:25:33;;;;;;;0.60;0.60;;;;;;;8.55;100.00;99293.38;4969274;28;20085;-86
2023/08/26 01:28:00;;;;;;;0.55;0.55;;;;;;;8.68;100.00;99300.47;4969804;28;20051;-86
2023/08/26 01:30:28;;;;;;;0.60;0.60;;;;;;;8.65;100.00;99290.19;4969117;28;20054;-85
2023/08/26 01:33:05;;;;;;;0.70;0.70;;;;;;;8.63;100.00;99285.03;4952859;28;20478;-87
2023/08/26 01:35:37;;;;;;;0.60;0.60;;;;;;;8.65;100.00;99287.47;4952978;28;20106;-86
2023/08/26 01:38:07;;;;;;;0.60;0.60;;;;;;;8.67;100.00;99293.47;4970564;28;20051;-87
2023/08/26 01:40:35;;;;;;;0.57;0.57;;;;;;;8.71;100.00;99302.75;4973066;28;20547;-85
2023/08/26 01:43:06;;;;;;;0.60;0.60;;;;;;;8.71;100.00;99305.44;4957468;28;20149;-86
2023/08/26 01:45:33;;;;;;;0.60;0.60;;;;;;;8.68;100.00;99301.31;4941253;28;20137;-85
2023/08/26 01:48:01;;;;;;;0.60;0.60;;;;;;;8.66;100.00;99295.34;4941139;28;20079;-86
2023/08/26 01:50:29;;;;;;;0.60;0.60;;;;;;;8.63;100.00;99311.94;5035906;28;20121;-87
2023/08/26 01:52:56;;;;;;;0.60;0.60;;;;;;;8.57;100.00;99293.16;5054291;28;20049;-87
2023/08/26 01:55:25;;;;;;;0.60;0.60;;;;;;;8.47;100.00;99269.47;5036084;28;20084;-86
2023/08/26 01:57:53;;;;;;;0.60;0.60;;;;;;;8.56;100.00;99296.88;5036208;28;20061;-86
2023/08/26 02:00:21;;;;;;;0.60;0.60;;;;;;;8.57;100.00;99294.00;5036029;28;20056;-86
2023/08/26 02:02:48;;;;;;;0.57;0.57;;;;;;;8.56;100.00;99289.66;5053891;28;20099;-86
2023/08/26 02:05:15;;;;;;;0.60;0.60;;;;;;;8.69;100.00;99315.59;5035945;28;20119;-87
2023/08/26 02:07:43;;;;;;;0.60;0.60;;;;;;;8.68;100.00;99322.84;5053900;28;20095;-88
2023/08/26 02:10:10;;;;;;;0.60;0.60;;;;;;;8.59;100.00;99299.97;5035857;28;20049;-87
2023/08/26 02:12:37;;;;;;;0.60;0.60;;;;;;;8.58;100.00;99300.19;5036120;28;20684;-86
2023/08/26 02:15:06;;;;;;;0.60;0.60;;;;;;;8.64;100.00;99316.25;5036271;28;20045;-87
2023/08/26 02:17:33;;;;;;;0.60;0.60;;;;;;;8.51;100.00;99310.19;5053421;28;20091;-85
2023/08/26 02:20:01;;;;;;;0.60;0.60;;;;;;;8.49;100.00;99309.63;5036008;28;20048;-86
2023/08/26 02:22:30;;;;;;;0.60;0.60;;;;;;;8.48;100.00;99303.38;5035782;28;20135;-86
2023/08/26 02:24:58;;;;;;;0.60;0.60;;;;;;;8.49;100.00;99320.38;5035728;28;20083;-86
2023/08/26 02:27:25;;;;;;;0.60;0.60;;;;;;;8.54;100.00;99312.47;5035444;28;20152;-86
2023/08/26 02:29:52;;;;;;;0.70;0.70;;;;;;;8.65;100.00;99319.78;5035659;28;20045;-86
2023/08/26 02:32:21;;;;;;;0.60;0.60;;;;;;;8.77;100.00;99327.94;5035700;28;20041;-86
2023/08/26 02:34:49;;;;;;;0.60;0.60;;;;;;;8.65;100.00;99300.94;5036804;28;20506;-86
2023/08/26 02:37:16;;;;;;;0.60;0.60;;;;;;;8.79;100.00;99315.06;5055324;28;20140;-87
2023/08/26 02:39:45;;;;;;;0.60;0.60;;;;;;;8.84;100.00;99312.53;5054901;28;20451;-89
2023/08/26 02:42:13;;;;;;;0.60;0.60;;;;;;;8.80;100.00;99300.56;5054147;28;20045;-86
2023/08/26 02:44:40;;;;;;;0.60;0.60;;;;;;;8.95;100.00;99313.63;5035945;28;20103;-86
2023/08/26 02:47:07;;;;;;;0.60;0.60;;;;;;;8.86;100.00;99288.88;5035686;28;20045;-85
2023/08/26 02:49:35;;;;;;;0.60;0.60;;;;;;;9.04;100.00;99309.56;5034700;28;20041;-86
2023/08/26 02:52:02;;;;;;;0.60;0.60;;;;;;;9.04;100.00;99309.56;5053183;28;20053;-86
2023/08/26 02:54:29;;;;;;;0.60;0.60;;;;;;;9.03;100.00;99306.06;5034977;28;20056;-86
2023/08/26 02:56:59;;;;;;;0.60;0.60;;;;;;;8.99;100.00;99290.56;5035299;28;20094;-86
2023/08/26 02:59:28;;;;;;;0.52;0.52;;;;;;;9.02;100.00;99299.03;5052734;28;20045;-86
2023/08/26 03:02:03;;;;;;;0.60;0.60;;;;;;;9.15;100.00;99313.38;5019618;28;20076;-85
2023/08/26 03:04:33;;;;;;;0.60;0.60;;;;;;;9.17;100.00;99309.41;5015732;28;20049;-86
2023/08/26 03:07:00;;;;;;;0.55;0.55;;;;;;;9.21;100.00;99310.56;4999612;28;20591;-86
2023/08/26 03:09:29;;;;;;;0.65;0.65;;;;;;;9.41;100.00;99326.47;5014997;28;20526;-86
2023/08/26 03:11:58;;;;;;;0.60;0.60;;;;;;;9.35;100.00;99315.81;5015180;28;20056;-85
2023/08/26 03:14:27;;;;;;;0.60;0.60;;;;;;;9.39;100.00;99314.28;5014679;28;20053;-86
2023/08/26 03:16:54;;;;;;;0.70;0.70;;;;;;;9.48;100.00;99311.03;5015201;28;20045;-87
2023/08/26 03:19:21;;;;;;;0.57;0.57;;;;;;;9.68;99.01;99323.41;5032563;28;20072;-86
2023/08/26 03:21:49;;;;;;;0.60;0.60;;;;;;;9.89;98.03;99338.19;5015251;28;20539;-87
2023/08/26 03:24:17;;;;;;;0.70;0.70;;;;;;;9.93;97.21;99329.41;5032798;28;20057;-85
2023/08/26 03:26:46;;;;;;;0.70;0.70;;;;;;;9.88;96.80;99312.31;5015078;28;20566;-85
2023/08/26 03:29:14;;;;;;;0.60;0.60;;;;;;;10.01;97.03;99317.47;4999176;28;20122;-86
2023/08/26 03:31:50;;;;;;;0.60;0.60;;;;;;;10.07;96.40;99321.09;5001570;28;20540;-86
2023/08/26 03:34:19;;;;;;;0.60;0.60;;;;;;;10.28;96.28;99333.22;5036328;28;20084;-87
2023/08/26 03:36:46;;;;;;;0.60;0.60;;;;;;;10.36;96.06;99333.69;5016457;28;20050;-86
2023/08/26 03:39:13;;;;;;;0.70;0.70;;;;;;;10.36;96.14;99322.91;5014751;28;20041;-87
2023/08/26 03:41:41;;;;;;;0.60;0.60;;;;;;;10.35;96.11;99306.94;5032479;28;20095;-86
2023/08/26 03:44:08;;;;;;;0.60;0.60;;;;;;;10.40;96.24;99310.56;5014678;28;20444;-87
2023/08/26 03:46:35;;;;;;;0.60;0.60;;;;;;;10.41;95.92;99306.03;5031872;28;20135;-87
2023/08/26 03:49:02;;;;;;;0.60;0.60;;;;;;;10.59;95.41;99323.94;5032031;28;20041;-88
2023/08/26 03:51:30;;;;;;;0.60;0.60;;;;;;;10.63;94.66;99323.25;5031604;28;20053;-86
2023/08/26 03:53:58;;;;;;;0.60;0.60;;;;;;;10.80;93.65;99326.00;5014302;28;20049;-87
2023/08/26 03:56:28;;;;;;;0.70;0.70;;;;;;;10.89;93.19;99318.38;5014044;28;20095;-87
2023/08/26 03:58:57;;;;;;;0.60;0.60;;;;;;;10.96;92.12;99307.41;5014409;28;20052;-86
2023/08/26 04:01:24;;;;;;;0.60;0.60;;;;;;;11.25;90.62;99310.97;5029411;28;20077;-86
2023/08/26 04:03:52;;;;;;;0.60;0.60;;;;;;;11.48;89.68;99318.97;4997952;28;20152;-87
2023/08/26 04:06:19;;;;;;;0.60;0.60;;;;;;;11.60;89.19;99308.09;5013779;28;20049;-88
2023/08/26 04:08:46;;;;;;;0.60;0.60;;;;;;;11.72;84.85;99308.00;5013985;28;20046;-87
2023/08/26 04:11:16;;;;;;;0.60;0.60;;;;;;;12.03;80.16;99322.91;5013660;28;20085;-86
2023/08/26 04:13:47;;;;;;;0.70;0.70;;;;;;;12.23;78.65;99316.16;5013816;28;20045;-86
2023/08/26 04:16:19;;;;;;;0.65;0.65;;;;;;;12.39;78.49;99299.09;5031643;28;20512;-86
2023/08/26 04:18:50;;;;;;;0.60;0.60;;;;;;;12.67;77.67;99305.41;5019876;28;20499;-86
2023/08/26 04:21:17;;;;;;;0.60;0.60;;;;;;;12.70;77.80;99291.38;5070959;28;20055;-84
2023/08/26 04:23:45;;;;;;;0.60;0.60;;;;;;;12.88;77.48;99298.38;5053857;28;20048;-87
2023/08/26 04:26:12;;;;;;;0.60;0.60;;;;;;;13.14;76.78;99308.44;5054231;28;20064;-87
2023/08/26 04:28:39;;;;;;;0.60;0.60;;;;;;;13.19;75.82;99285.97;5035811;28;20120;-86
2023/08/26 04:31:07;;;;;;;0.60;0.60;;;;;;;13.44;74.69;99297.13;5052837;28;20048;-86
2023/08/26 04:33:37;;;;;;;0.60;0.60;;;;;;;13.61;73.66;99313.28;5053428;28;20127;-86
2023/08/26 04:36:05;;;;;;;0.50;0.50;;;;;;;13.61;73.25;99298.91;5071388;28;20105;-87
2023/08/26 04:38:32;;;;;;;0.50;0.50;;;;;;;13.80;71.79;99308.31;5053281;28;20048;-86
2023/08/26 04:41:01;;;;;;;0.50;0.50;;;;;;;13.68;71.05;99294.09;5034108;28;20056;-86
2023/08/26 04:43:28;;;;;;;0.60;0.60;;;;;;;13.69;71.73;99286.78;5069670;28;20052;-86
2023/08/26 04:45:55;;;;;;;0.60;0.60;;;;;;;13.73;72.01;99293.34;5053707;28;20049;-87
2023/08/26 04:48:22;;;;;;;0.50;0.50;;;;;;;13.86;72.44;99309.97;5070879;28;20051;-86
2023/08/26 04:50:50;;;;;;;0.60;0.60;;;;;;;13.93;72.11;99303.53;5065824;28;20141;-85
2023/08/26 04:53:17;;;;;;;0.60;0.60;;;;;;;13.84;72.51;99279.56;5050663;28;20114;-87
2023/08/26 04:55:51;;;;;;;0.60;0.60;;;;;;;14.04;73.56;99278.09;5050889;28;20470;-86
2023/08/26 04:58:18;;;;;;;0.57;0.57;;;;;;;14.18;73.84;99298.28;5033150;28;20048;-86
2023/08/26 05:00:46;;;;;;;0.50;0.50;;;;;;;14.23;73.98;99300.19;5032810;28;20060;-85
2023/08/26 05:03:14;;;;;;;0.50;0.50;;;;;;;14.26;73.79;99299.69;5050490;28;20048;-86
2023/08/26 05:05:42;;;;;;;0.50;0.50;;;;;;;14.28;73.31;99295.66;5032995;28;20068;-87
2023/08/26 05:08:11;;;;;;;0.50;0.50;;;;;;;14.34;70.74;99303.81;5050793;28;20059;-86
2023/08/26 05:10:39;;;;;;;0.50;0.50;;;;;;;14.42;69.26;99303.31;5032626;28;20148;-87
2023/08/26 05:13:07;;;;;;;0.50;0.50;;;;;;;14.41;69.26;99304.41;5065744;28;20480;-86
2023/08/26 05:15:35;;;;;;;0.50;0.50;;;;;;;14.42;68.85;99303.31;5065649;28;20090;-86
2023/08/26 05:18:04;;;;;;;0.50;0.50;;;;;;;14.40;69.30;99306.28;5065717;28;20140;-86
2023/08/26 05:20:31;;;;;;;0.50;0.50;;;;;;;14.33;68.70;99297.59;5065656;28;20048;-86
2023/08/26 05:22:59;;;;;;;0.50;0.50;;;;;;;14.36;68.28;99294.34;5032529;28;20136;-86
2023/08/26 05:25:26;;;;;;;0.50;0.50;;;;;;;14.38;67.61;99288.63;5032331;28;20056;-88
2023/08/26 05:27:53;;;;;;;0.40;0.40;;;;;;;14.35;66.77;99294.59;5050224;28;20076;-85
2023/08/26 05:30:22;;;;;;;0.50;0.50;;;;;;;14.24;67.43;99286.38;5015664;28;20129;-87
2023/08/26 05:32:54;;;;;;;0.40;0.40;;;;;;;14.14;67.24;99270.03;5050079;28;20148;-87
2023/08/26 05:35:23;;;;;;;0.50;0.50;;;;;;;14.22;67.03;99280.38;5016153;28;20545;-86
2023/08/26 05:37:50;;;;;;;0.50;0.50;;;;;;;14.28;67.21;99273.94;5032398;28;20534;-86
2023/08/26 05:40:21;;;;;;;0.40;0.40;;;;;;;14.46;66.77;99280.00;5016087;28;20049;-85
2023/08/26 05:42:48;;;;;;;0.40;0.40;;;;;;;14.43;66.19;99261.50;5012908;28;20118;-87
2023/08/26 05:45:17;;;;;;;0.50;0.50;;;;;;;14.55;65.52;99270.28;5021136;28;20046;-86
2023/08/26 05:47:44;;;;;;;0.50;0.50;;;;;;;14.76;65.26;99281.25;5021615;28;20049;-85
2023/08/26 05:50:11;;;;;;;0.40;0.40;;;;;;;14.69;65.00;99257.88;5040427;28;20058;-86
2023/08/26 05:52:39;;;;;;;0.50;0.50;;;;;;;14.99;64.64;99269.94;5021217;28;20073;-85
2023/08/26 05:55:07;;;;;;;0.50;0.50;;;;;;;15.32;65.12;99276.81;5045902;28;20049;-86
2023/08/26 05:57:35;;;;;;;0.60;0.60;;;;;;;15.56;65.56;99274.41;5010519;28;20120;-87
2023/08/26 06:00:02;;;;;;;0.47;0.47;;;;;;;15.73;64.31;99257.03;5028293;28;20115;-87
2023/08/26 06:02:42;;;;;;;0.50;0.50;;;;;;;15.87;63.53;99273.63;5031581;28;20042;-87
2023/08/26 06:05:13;;;;;;;0.50;0.50;;;;;;;16.07;62.45;99275.53;5016155;28;20055;-88
2023/08/26 06:07:41;;;;;;;0.60;0.60;;;;;;;16.15;62.64;99270.31;4998820;28;20060;-86
2023/08/26 06:10:09;;;;;;;0.50;0.50;;;;;;;16.43;62.71;99281.72;5028838;28;20056;-87
2023/08/26 06:12:37;;;;;;;0.40;0.40;;;;;;;16.61;62.27;99280.28;5011890;28;20055;-84
2023/08/26 06:15:09;;;;;;;0.50;0.50;;;;;;;16.79;61.94;99271.56;5012355;28;20063;-84
2023/08/26 06:17:37;;;;;;;0.40;0.40;;;;;;;16.80;61.94;99273.19;4995999;28;20422;-86
2023/08/26 06:20:05;;;;;;;0.50;0.50;;;;;;;16.80;61.83;99261.47;5013339;28;20053;-86
2023/08/26 06:22:32;;;;;;;0.40;0.40;;;;;;;16.90;61.76;99275.84;5034650;28;20136;-86
2023/08/26 06:25:00;;;;;;;0.50;0.50;;;;;;;16.97;62.02;99274.75;5032166;28;20107;-86
2023/08/26 06:27:28;;;;;;;0.50;0.50;;;;;;;16.86;60.66;99268.50;5035466;28;20041;-86
2023/08/26 06:29:57;;;;;;;0.50;0.50;;;;;;;16.83;61.13;99269.88;5053496;28;20102;-84
2023/08/26 06:32:25;;;;;;;0.50;0.50;;;;;;;16.78;62.33;99259.00;5052931;28;20049;-86
2023/08/26 06:34:53;;;;;;;0.50;0.50;;;;;;;16.85;61.93;99262.25;5035401;28;20148;-86
2023/08/26 06:37:20;;;;;;;0.50;0.50;;;;;;;16.78;61.36;99247.28;5052732;28;20075;-84
2023/08/26 06:39:48;;;;;;;0.50;0.50;;;;;;;17.11;60.55;99273.84;5035397;28;20052;-85
2023/08/26 06:42:15;;;;;;;0.50;0.50;;;;;;;17.33;60.17;99270.72;5035396;28;20049;-85
2023/08/26 06:44:54;;;;;;;0.45;0.45;;;;;;;17.48;58.78;99269.00;5019197;28;20135;-85
2023/08/26 06:47:21;;;;;;;0.50;0.50;;;;;;;17.37;59.05;99253.78;5018883;28;20044;-85
2023/08/26 06:49:50;;;;;;;0.50;0.50;;;;;;;17.60;58.78;99260.44;5034935;28;20049;-84
2023/08/26 06:52:17;;;;;;;0.50;0.50;;;;;;;17.59;58.62;99264.28;5029483;28;20052;-85
2023/08/26 06:54:45;;;;;;;0.40;0.40;;;;;;;17.52;58.74;99270.03;5040903;28;20053;-84
2023/08/26 06:57:12;;;;;;;0.50;0.50;;;;;;;17.61;58.81;99265.63;5043332;28;20538;-83
2023/08/26 06:59:39;;;;;;;0.50;0.50;;;;;;;17.70;57.82;99254.94;5041431;28;20050;-85
2023/08/26 07:02:07;;;;;;;0.50;0.50;;;;;;;17.69;58.23;99250.56;5041582;28;20049;-86
2023/08/26 07:04:34;;;;;;;0.50;0.50;;;;;;;17.67;58.15;99245.41;5058584;28;20045;-86
2023/08/26 07:07:01;;;;;;;0.40;0.40;;;;;;;17.67;58.60;99245.41;5051263;28;20140;-87
2023/08/26 07:09:28;;;;;;;0.40;0.40;;;;;;;17.67;58.86;99258.19;5048827;28;20049;-86
2023/08/26 07:11:55;;;;;;;0.40;0.40;;;;;;;17.59;59.34;99273.28;5054185;28;20052;-86
2023/08/26 07:14:24;;;;;;;0.40;0.40;;;;;;;17.34;59.13;99252.44;5051945;28;20052;-86
2023/08/26 07:16:51;;;;;;;0.40;0.40;;;;;;;17.25;59.74;99251.41;5034644;28;20036;-86
2023/08/26 07:19:19;;;;;;;0.40;0.40;;;;;;;17.28;60.01;99243.47;5052337;28;20052;-86
2023/08/26 07:21:46;;;;;;;0.45;0.45;;;;;;;17.40;59.01;99250.50;5052221;28;20069;-86
2023/08/26 07:24:15;;;;;;;0.40;0.40;;;;;;;17.59;59.35;99270.53;5053285;28;20078;-85
2023/08/26 07:26:42;;;;;;;0.40;0.40;;;;;;;17.63;59.92;99254.44;5051866;28;20045;-84
2023/08/26 07:29:09;;;;;;;0.40;0.40;;;;;;;17.67;60.37;99255.47;5052092;28;20049;-85
2023/08/26 07:31:36;;;;;;;0.40;0.40;;;;;;;17.66;60.16;99265.59;5051948;28;20075;-85
2023/08/26 07:34:04;;;;;;;0.40;0.40;;;;;;;17.45;59.68;99254.00;5034052;28;20068;-84
2023/08/26 07:36:31;;;;;;;0.38;0.38;;;;;;;17.39;59.70;99251.59;5051590;28;20415;-84
2023/08/26 07:38:58;;;;;;;0.40;0.40;;;;;;;17.33;59.25;99248.09;5034212;28;20544;-86
2023/08/26 07:41:26;;;;;;;0.40;0.40;;;;;;;17.40;59.24;99251.31;5033322;28;20423;-87
2023/08/26 07:43:55;;;;;;;0.40;0.40;;;;;;;17.40;59.62;99258.69;5051551;28;20053;-86
2023/08/26 07:46:22;;;;;;;0.40;0.40;;;;;;;17.41;59.13;99263.03;5050635;28;20463;-86
2023/08/26 07:48:53;;;;;;;0.47;0.47;;;;;;;17.43;59.95;99261.66;5040866;28;20049;-84
2023/08/26 07:51:20;;;;;;;0.40;0.40;;;;;;;17.44;59.61;99263.28;5040301;28;20080;-85
2023/08/26 07:53:47;;;;;;;0.40;0.40;;;;;;;17.28;59.90;99253.56;5044695;28;20543;-85
2023/08/26 07:56:15;;;;;;;0.40;0.40;;;;;;;17.39;60.42;99251.59;5024732;28;20518;-87
2023/08/26 07:58:42;;;;;;;0.40;0.40;;;;;;;17.49;59.82;99254.25;5039832;28;20050;-86
2023/08/26 08:01:09;;;;;;;0.40;0.40;;;;;;;17.45;59.14;99258.66;5007696;28;20049;-85
2023/08/26 08:03:37;;;;;;;0.40;0.40;;;;;;;17.39;59.85;99248.88;5041457;28;20057;-86
2023/08/26 08:06:04;;;;;;;0.40;0.40;;;;;;;17.33;59.35;99240.72;5039922;28;20049;-86
2023/08/26 08:08:31;;;;;;;0.50;0.50;;;;;;;17.31;59.68;99240.19;5020684;28;20076;-85
2023/08/26 08:10:58;;;;;;;0.40;0.40;;;;;;;17.33;59.32;99239.91;5046537;28;20080;-85
2023/08/26 08:13:25;;;;;;;0.40;0.40;;;;;;;17.20;59.12;99232.38;5051138;28;20070;-86
2023/08/26 08:15:53;;;;;;;0.50;0.50;;;;;;;17.23;59.60;99243.50;5051091;28;20053;-86
2023/08/26 08:18:20;;;;;;;0.40;0.40;;;;;;;17.21;59.73;99229.34;5033321;28;20049;-87
2023/08/26 08:20:48;;;;;;;0.40;0.40;;;;;;;17.18;60.48;99229.91;5050804;28;20076;-87
2023/08/26 08:23:15;;;;;;;0.40;0.40;;;;;;;17.29;60.23;99236.09;5050976;28;20044;-86
2023/08/26 08:25:42;;;;;;;0.40;0.40;;;;;;;17.27;60.64;99238.31;5051051;28;20554;-85
2023/08/26 08:28:09;;;;;;;0.40;0.40;;;;;;;17.17;60.81;99216.56;5051085;28;20055;-86
2023/08/26 08:30:36;;;;;;;0.40;0.40;;;;;;;17.05;61.46;99206.00;5050905;28;20048;-86
2023/08/26 08:33:04;;;;;;;0.40;0.40;;;;;;;16.98;61.71;99200.84;5033014;28;20057;-87
2023/08/26 08:35:31;;;;;;;0.40;0.40;;;;;;;17.06;62.36;99210.34;5032636;28;20526;-86
2023/08/26 08:37:58;;;;;;;0.40;0.40;;;;;;;17.17;60.53;99224.75;5016739;28;20047;-86
2023/08/26 08:40:26;;;;;;;0.40;0.40;;;;;;;16.93;60.86;99202.78;5032708;28;20049;-88
2023/08/26 08:42:54;;;;;;;0.40;0.40;;;;;;;16.80;60.34;99221.41;5033176;28;20488;-86
2023/08/26 08:45:24;;;;;;;0.40;0.40;;;;;;;16.69;60.59;99220.59;5034148;28;20049;-88
2023/08/26 08:47:53;;;;;;;0.40;0.40;;;;;;;16.64;60.91;99225.25;5050305;28;20053;-87
2023/08/26 08:50:21;;;;;;;0.40;0.40;;;;;;;16.44;61.41;99202.44;5033236;28;20527;-87
2023/08/26 08:52:51;;;;;;;0.40;0.40;;;;;;;16.33;61.48;99197.31;5050475;28;20616;-86
2023/08/26 08:55:19;;;;;;;0.40;0.40;;;;;;;16.33;62.36;99200.88;5016629;28;20084;-86
2023/08/26 08:57:47;;;;;;;0.40;0.40;;;;;;;16.40;63.02;99201.38;5050627;28;20041;-86
2023/08/26 09:00:17;;;;;;;0.50;0.50;;;;;;;16.36;62.36;99211.19;5033382;28;20045;-86
2023/08/26 09:02:46;;;;;;;0.40;0.40;;;;;;;16.30;62.77;99212.28;5050206;28;20502;-86
2023/08/26 09:05:14;;;;;;;0.40;0.40;;;;;;;16.10;63.68;99217.78;5023940;28;20053;-87
2023/08/26 09:07:41;;;;;;;0.50;0.50;;;;;;;16.04;64.50;99206.91;5040864;28;20040;-89
2023/08/26 09:10:11;;;;;;;0.50;0.50;;;;;;;16.09;64.42;99216.19;5021901;28;20119;-88
2023/08/26 09:12:39;;;;;;;0.40;0.40;;;;;;;15.97;65.56;99197.41;5032175;28;20064;-87
2023/08/26 09:15:07;;;;;;;0.50;0.50;;;;;;;15.91;65.35;99183.00;5030677;28;20103;-86
2023/08/26 09:17:34;;;;;;;0.40;0.40;;;;;;;16.11;65.89;99205.84;5011552;28;20042;-86
2023/08/26 09:20:02;;;;;;;0.40;0.40;;;;;;;16.02;65.67;99181.88;5030761;28;20052;-86
2023/08/26 09:22:31;;;;;;;0.40;0.40;;;;;;;16.04;63.37;99182.41;4980240;28;20056;-86
2023/08/26 09:25:00;;;;;;;0.40;0.40;;;;;;;16.00;62.29;99207.75;5031460;28;20486;-86
2023/08/26 09:27:34;;;;;;;0.40;0.40;;;;;;;16.00;62.59;99208.56;5014798;28;20088;-89
2023/08/26 09:30:04;;;;;;;0.40;0.40;;;;;;;16.01;62.18;99203.94;5051072;28;20049;-87
2023/08/26 09:32:37;;;;;;;0.40;0.40;;;;;;;15.95;62.20;99199.59;5033113;28;20064;-87
2023/08/26 09:35:09;;;;;;;0.40;0.40;;;;;;;15.94;62.62;99206.13;5043752;28;20045;-85
2023/08/26 09:37:37;;;;;;;0.40;0.40;;;;;;;15.86;62.93;99191.16;5042161;28;20504;-88
2023/08/26 09:40:05;;;;;;;0.40;0.40;;;;;;;15.88;63.24;99186.28;5026098;28;20055;-88
2023/08/26 09:42:34;;;;;;;0.40;0.40;;;;;;;16.07;63.48;99197.38;5044292;28;20048;-90
2023/08/26 09:45:02;;;;;;;0.40;0.40;;;;;;;16.16;63.96;99211.25;5033476;28;20064;-92
2023/08/26 09:47:36;;;;;;;0.40;0.40;;;;;;;16.11;63.68;99200.38;5020181;28;20116;-90
2023/08/26 09:50:05;;;;;;;0.33;0.33;;;;;;;16.04;63.82;99201.47;5039907;28;20496;-89
2023/08/26 09:52:51;;;;;;;0.40;0.40;;;;;;;16.04;64.52;99208.81;5037616;28;20164;-89
2023/08/26 09:55:20;;;;;;;0.50;0.50;;;;;;;15.81;64.55;99185.72;5014982;28;20629;-91
2023/08/26 09:57:48;;;;;;;0.40;0.40;;;;;;;15.97;64.82;99213.72;4997126;28;20152;-89
2023/08/26 10:00:16;;;;;;;0.43;0.43;;;;;;;15.93;64.98;99202.59;5038690;28;20046;-89
2023/08/26 10:02:49;;;;;;;0.50;0.50;;;;;;;15.80;65.57;99184.13;5038045;28;20099;-90
2023/08/26 10:05:21;;;;;;;0.40;0.40;;;;;;;15.81;66.45;99208.31;5045587;28;20044;-90
2023/08/26 10:07:50;;;;;;;0.40;0.40;;;;;;;15.63;66.92;99191.72;5027463;28;20053;-89
2023/08/26 10:10:24;;;;;;;0.40;0.40;;;;;;;15.59;67.01;99210.47;5039785;28;20060;-86
2023/08/26 10:13:10;;;;;;;0.50;0.50;;;;;;;15.56;67.16;99200.94;5041874;28;20384;-85
2023/08/26 10:15:37;;;;;;;0.40;0.40;;;;;;;15.47;67.60;99194.44;5035414;28;20041;-86
2023/08/26 10:18:47;;;;;;;0.40;0.40;;;;;;;15.42;68.64;99185.44;5034680;28;20090;-85
2023/08/26 10:21:14;;;;;;;0.40;0.40;;;;;;;15.37;70.00;99195.25;4917368;29;20138;-85
2023/08/26 10:23:41;;;;;;;0.40;0.40;;;;;;;15.45;70.23;99204.78;4933274;29;20054;-86
2023/08/26 10:26:09;;;;;;;0.40;0.40;;;;;;;15.39;69.82;99193.09;4937096;29;20095;-86
2023/08/26 10:28:37;;;;;;;0.40;0.40;;;;;;;15.41;69.94;99187.34;4922468;29;20052;-85
2023/08/26 10:31:07;;;;;;;0.40;0.40;;;;;;;15.36;70.60;99185.44;4932028;29;20060;-86
2023/08/26 10:34:07;;;;;;;0.40;0.40;;;;;;;15.48;71.65;99196.06;4933146;29;20047;-86
2023/08/26 10:36:35;;;;;;;0.40;0.40;;;;;;;15.40;72.36;99199.34;4908592;29;20051;-85
2023/08/26 10:39:03;;;;;;;0.45;0.45;;;;;;;15.23;72.05;99174.31;4925462;29;20055;-86
2023/08/26 10:41:31;;;;;;;0.50;0.50;;;;;;;15.18;72.12;99185.97;4940876;29;20103;-86
2023/08/26 10:44:03;;;;;;;0.40;0.40;;;;;;;15.06;72.53;99172.63;4927527;29;20147;-85
2023/08/26 10:46:55;;;;;;;0.50;0.50;;;;;;;15.03;71.54;99188.69;4921617;29;20055;-87
2023/08/26 10:49:28;;;;;;;0.40;0.40;;;;;;;14.71;72.61;99140.78;4919632;29;20055;-85
2023/08/26 10:52:09;;;;;;;0.40;0.40;;;;;;;14.74;73.41;99165.53;4918007;29;20086;-85
2023/08/26 10:54:37;;;;;;;0.50;0.50;;;;;;;14.77;74.30;99174.22;4933152;29;20051;-85
2023/08/26 10:57:08;;;;;;;0.43;0.43;;;;;;;14.67;74.60;99173.13;4988884;28;20088;-85
2023/08/26 10:59:36;;;;;;;0.40;0.40;;;;;;;14.67;75.79;99175.00;5039664;28;20550;-88
2023/08/26 11:02:07;;;;;;;0.40;0.40;;;;;;;14.62;77.30;99167.66;5027118;28;20045;-88
2023/08/26 11:04:42;;;;;;;0.50;0.50;;;;;;;14.49;77.82;99147.22;5025239;28;20049;-88
2023/08/26 11:07:17;;;;;;;0.47;0.47;;;;;;;14.27;78.98;99150.13;5045303;28;20500;-87
2023/08/26 11:09:45;;;;;;;0.50;0.50;;;;;;;14.21;79.91;99155.81;5026679;28;20060;-87
2023/08/26 11:12:27;;;;;;;0.50;0.50;;;;;;;14.25;81.19;99165.84;5041293;28;20041;-85
2023/08/26 11:15:05;;;;;;;0.40;0.40;;;;;;;14.22;81.93;99155.53;5046651;28;20072;-85
2023/08/26 11:17:33;;;;;;;0.40;0.40;;;;;;;14.22;82.21;99144.66;5051317;28;20053;-85
2023/08/26 11:20:20;;;;;;;0.50;0.50;;;;;;;14.12;82.97;99143.81;5047720;28;20052;-86
2023/08/26 11:23:05;;;;;;;0.50;0.50;;;;;;;14.21;83.95;99166.66;5045617;28;20046;-85
2023/08/26 11:25:38;;;;;;;0.50;0.50;;;;;;;14.15;85.00;99159.56;5022373;28;20057;-86
2023/08/26 11:28:08;;;;;;;0.50;0.50;;;;;;;14.12;85.64;99147.34;5048675;28;20084;-86
2023/08/26 11:30:37;;;;;;;0.50;0.50;;;;;;;14.23;86.41;99165.31;5022060;28;20103;-86
2023/08/26 11:33:15;;;;;;;0.43;0.43;;;;;;;14.17;86.88;99154.69;5021490;28;20132;-86
2023/08/26 11:35:44;;;;;;;0.40;0.40;;;;;;;14.32;87.43;99163.72;5043451;28;20053;-85
2023/08/26 11:38:35;;;;;;;0.50;0.50;;;;;;;14.37;88.25;99156.69;5054357;28;20073;-86
2023/08/26 11:41:06;;;;;;;0.50;0.50;;;;;;;14.35;88.59;99161.56;5026499;28;20061;-87
2023/08/26 11:43:35;;;;;;;0.43;0.43;;;;;;;14.16;89.12;99125.94;5014005;28;20054;-86